createdAt,value
2017-12-20T00:01:35.087Z,10.30
2017-12-20T00:04:03.704Z,10.13
2017-12-20T00:06:32.276Z,9.03
2017-12-20T00:09:00.859Z,10.20
2017-12-20T00:11:29.481Z,9.53
2017-12-20T00:13:58.043Z,9.57
2017-12-20T00:16:26.621Z,11.10
2017-12-20T00:18:55.192Z,11.80
2017-12-20T00:21:23.717Z,9.30
2017-12-20T00:23:52.282Z,10.07
2017-12-20T00:26:20.900Z,10.23
2017-12-20T00:28:49.480Z,9.53
2017-12-20T00:31:18.037Z,11.23
2017-12-20T00:33:46.648Z,10.67
2017-12-20T00:36:15.213Z,9.83
2017-12-20T00:38:43.838Z,11.17
2017-12-20T00:41:13.217Z,10.43
2017-12-20T00:43:41.793Z,10.13
2017-12-20T00:46:10.368Z,9.83
2017-12-20T00:48:39.020Z,9.33
2017-12-20T00:51:07.546Z,9.50
2017-12-20T00:53:36.064Z,9.13
2017-12-20T00:56:04.759Z,9.17
2017-12-20T00:58:34.065Z,9.00
2017-12-20T01:01:03.408Z,8.57
2017-12-20T01:03:32.029Z,7.70
2017-12-20T01:06:00.625Z,8.27
2017-12-20T01:08:28.626Z,8.30
2017-12-20T01:10:57.264Z,8.87
2017-12-20T01:13:25.821Z,8.93
2017-12-20T01:15:54.372Z,8.70
2017-12-20T01:18:23.849Z,8.73
2017-12-20T01:20:52.390Z,8.00
2017-12-20T01:23:20.955Z,8.20
2017-12-20T01:25:50.652Z,7.77
2017-12-20T01:28:19.208Z,7.53
2017-12-20T01:30:47.800Z,9.27
2017-12-20T01:33:16.463Z,8.60
2017-12-20T01:35:44.989Z,8.53
2017-12-20T01:38:13.550Z,8.50
2017-12-20T01:40:41.527Z,8.43
2017-12-20T01:43:10.121Z,9.33
2017-12-20T01:45:38.698Z,8.57
2017-12-20T01:48:06.978Z,7.87
2017-12-20T01:50:35.583Z,9.23
2017-12-20T01:53:04.160Z,8.20
2017-12-20T01:55:32.168Z,8.00
2017-12-20T01:58:00.899Z,9.13
2017-12-20T02:00:29.477Z,8.50
2017-12-20T02:02:58.083Z,9.20
2017-12-20T02:05:26.679Z,8.67
2017-12-20T02:07:55.290Z,8.10
2017-12-20T02:10:24.617Z,8.50
2017-12-20T02:12:53.176Z,8.40
2017-12-20T02:15:22.572Z,8.50
2017-12-20T02:17:51.164Z,8.03
2017-12-20T02:20:20.037Z,7.50
2017-12-20T02:22:48.343Z,7.67
2017-12-20T02:25:17.440Z,8.57
2017-12-20T02:27:46.545Z,8.20
2017-12-20T02:30:15.255Z,8.73
2017-12-20T02:32:43.294Z,8.33
2017-12-20T02:35:11.588Z,9.00
2017-12-20T02:37:40.340Z,8.33
2017-12-20T02:40:08.314Z,9.00
2017-12-20T02:42:36.227Z,8.33
2017-12-20T02:45:04.982Z,8.67
2017-12-20T02:47:33.326Z,7.67
2017-12-20T02:50:02.085Z,9.33
2017-12-20T02:52:31.480Z,8.80
2017-12-20T02:55:00.512Z,9.23
2017-12-20T02:57:28.482Z,8.50
2017-12-20T02:59:56.419Z,8.43
2017-12-20T03:02:24.752Z,8.23
2017-12-20T03:04:53.069Z,7.53
2017-12-20T03:07:21.347Z,7.43
2017-12-20T03:09:49.995Z,7.57
2017-12-20T03:12:18.634Z,7.37
2017-12-20T03:14:47.721Z,7.77
2017-12-20T03:17:16.307Z,8.07
2017-12-20T03:19:44.903Z,7.30
2017-12-20T03:22:14.318Z,7.07
2017-12-20T03:24:43.673Z,8.07
2017-12-20T03:27:12.253Z,7.57
2017-12-20T03:29:40.842Z,7.17
2017-12-20T03:32:09.407Z,7.67
2017-12-20T03:34:37.987Z,6.77
2017-12-20T03:37:07.814Z,6.30
2017-12-20T03:39:37.271Z,7.10
2017-12-20T03:42:05.882Z,7.10
2017-12-20T03:44:34.473Z,8.13
2017-12-20T03:47:03.068Z,6.90
2017-12-20T03:49:31.607Z,7.17
2017-12-20T03:51:59.785Z,7.13
2017-12-20T03:54:27.777Z,7.40
2017-12-20T03:56:57.097Z,7.70
2017-12-20T03:59:25.703Z,6.73
2017-12-20T04:01:54.276Z,7.30
2017-12-20T04:04:22.866Z,8.83
2017-12-20T04:06:51.478Z,7.37
2017-12-20T04:09:20.055Z,8.10
2017-12-20T04:11:48.671Z,7.73
2017-12-20T04:14:17.271Z,7.43
2017-12-20T04:16:45.885Z,8.53
2017-12-20T04:19:14.409Z,7.93
2017-12-20T04:21:42.949Z,7.40
2017-12-20T04:24:12.342Z,7.57
2017-12-20T04:26:41.641Z,8.07
2017-12-20T04:29:10.229Z,8.17
2017-12-20T04:31:39.522Z,6.93
2017-12-20T04:34:08.095Z,7.53
2017-12-20T04:36:36.682Z,7.57
2017-12-20T04:39:04.660Z,8.50
2017-12-20T04:41:33.258Z,7.60
2017-12-20T04:44:01.849Z,10.80
2017-12-20T04:46:31.197Z,8.90
2017-12-20T04:48:59.794Z,9.23
2017-12-20T04:51:28.295Z,8.63
2017-12-20T04:53:56.927Z,9.07
2017-12-20T04:56:25.461Z,9.73
2017-12-20T04:58:54.021Z,9.37
2017-12-20T05:01:26.346Z,8.90
2017-12-20T05:03:55.782Z,8.50
2017-12-20T05:06:24.394Z,8.77
2017-12-20T05:08:52.954Z,8.20
2017-12-20T05:11:27.104Z,9.13
2017-12-20T05:13:55.698Z,8.80
2017-12-20T05:16:24.272Z,10.33
2017-12-20T05:18:53.030Z,12.53
2017-12-20T05:21:21.762Z,14.30
2017-12-20T05:23:50.367Z,14.27
2017-12-20T05:26:19.031Z,14.03
2017-12-20T05:28:47.783Z,11.93
2017-12-20T05:31:16.397Z,11.03
2017-12-20T05:33:44.976Z,11.10
2017-12-20T05:36:13.512Z,12.23
2017-12-20T05:38:42.126Z,13.63
2017-12-20T05:41:11.461Z,11.23
2017-12-20T05:43:40.504Z,12.07
2017-12-20T05:46:09.064Z,14.37
2017-12-20T05:48:37.544Z,13.70
2017-12-20T05:51:06.073Z,12.40
2017-12-20T05:53:35.324Z,13.57
2017-12-20T05:56:03.865Z,12.73
2017-12-20T05:58:33.119Z,12.10
2017-12-20T06:01:01.602Z,12.63
2017-12-20T06:03:30.122Z,11.37
2017-12-20T06:05:58.604Z,11.33
2017-12-20T06:08:27.129Z,10.47
2017-12-20T06:10:55.613Z,9.80
2017-12-20T06:13:24.093Z,10.90
2017-12-20T06:15:52.617Z,25.10
2017-12-20T06:18:23.117Z,18.67
2017-12-20T06:20:51.666Z,16.03
2017-12-20T06:23:20.931Z,14.00
2017-12-20T06:25:49.409Z,12.07
2017-12-20T06:28:17.920Z,12.20
2017-12-20T06:30:46.400Z,11.23
2017-12-20T06:33:14.928Z,10.00
2017-12-20T06:35:43.404Z,10.17
2017-12-20T06:38:11.880Z,9.70
2017-12-20T06:40:41.155Z,8.70
2017-12-20T06:43:09.647Z,11.80
2017-12-20T06:45:38.172Z,8.97
2017-12-20T06:48:06.664Z,9.87
2017-12-20T06:50:35.149Z,8.43
2017-12-20T06:53:03.677Z,18.70
2017-12-20T06:55:32.161Z,8.60
2017-12-20T06:58:00.694Z,8.97
2017-12-20T07:00:29.175Z,8.93
2017-12-20T07:02:58.687Z,8.10
2017-12-20T07:05:27.205Z,8.30
2017-12-20T07:07:55.693Z,8.70
2017-12-20T07:10:24.217Z,8.50
2017-12-20T07:12:53.464Z,7.57
2017-12-20T07:15:22.274Z,6.80
2017-12-20T07:17:50.802Z,7.33
2017-12-20T07:20:19.282Z,6.50
2017-12-20T07:22:48.904Z,6.47
2017-12-20T07:25:17.391Z,6.83
2017-12-20T07:27:45.880Z,5.90
2017-12-20T07:30:14.441Z,6.43
2017-12-20T07:32:42.919Z,7.30
2017-12-20T07:35:16.740Z,7.77
2017-12-20T07:37:46.299Z,9.07
2017-12-20T07:40:14.789Z,8.43
2017-12-20T07:42:43.352Z,7.27
2017-12-20T07:45:21.422Z,7.90
2017-12-20T07:47:49.990Z,7.47
2017-12-20T07:50:18.582Z,7.80
2017-12-20T07:52:47.887Z,7.20
2017-12-20T07:55:17.232Z,7.37
2017-12-20T07:57:45.803Z,7.33
2017-12-20T08:00:14.440Z,7.97
2017-12-20T08:02:43.015Z,7.10
2017-12-20T08:05:11.602Z,7.70
2017-12-20T08:07:40.243Z,8.50
2017-12-20T08:10:08.811Z,8.83
2017-12-20T08:12:38.200Z,7.90
2017-12-20T08:15:06.767Z,10.57
2017-12-20T08:17:35.324Z,10.23
2017-12-20T08:20:03.932Z,8.90
2017-12-20T08:22:32.467Z,8.63
2017-12-20T08:25:01.119Z,11.30
2017-12-20T08:27:29.741Z,10.73
2017-12-20T08:29:58.350Z,10.10
2017-12-20T08:32:26.937Z,9.43
2017-12-20T08:34:55.532Z,9.60
2017-12-20T08:37:24.958Z,9.53
2017-12-20T08:39:53.527Z,9.53
2017-12-20T08:42:22.881Z,9.13
2017-12-20T08:44:52.254Z,9.07
2017-12-20T08:47:21.276Z,8.37
2017-12-20T08:49:49.932Z,9.10
2017-12-20T08:52:18.590Z,9.80
2017-12-20T08:54:47.529Z,8.87
2017-12-20T08:57:16.167Z,8.83
2017-12-20T08:59:44.767Z,7.67
2017-12-20T09:02:13.495Z,8.03
2017-12-20T09:04:42.068Z,7.90
2017-12-20T09:07:10.664Z,7.90
2017-12-20T09:09:39.290Z,7.30
2017-12-20T09:12:08.601Z,6.93
2017-12-20T09:14:37.244Z,8.80
2017-12-20T09:17:05.767Z,6.63
2017-12-20T09:19:34.335Z,6.40
2017-12-20T09:22:03.690Z,7.50
2017-12-20T09:24:32.287Z,6.60
2017-12-20T09:27:00.951Z,8.10
2017-12-20T09:29:29.496Z,7.13
2017-12-20T09:31:58.825Z,7.10
2017-12-20T09:34:27.437Z,7.77
2017-12-20T09:36:56.015Z,7.50
2017-12-20T09:39:24.658Z,8.07
2017-12-20T09:42:01.430Z,7.83
2017-12-20T09:44:30.123Z,8.40
2017-12-20T09:46:58.698Z,8.13
2017-12-20T09:49:27.266Z,7.80
2017-12-20T09:51:55.833Z,9.40
2017-12-20T09:54:24.385Z,8.47
2017-12-20T09:56:53.022Z,10.10
2017-12-20T09:59:21.609Z,10.27
2017-12-20T10:01:50.191Z,8.33
2017-12-20T10:04:18.783Z,7.97
2017-12-20T10:06:47.351Z,8.40
2017-12-20T10:09:15.985Z,7.70
2017-12-20T10:11:44.624Z,7.90
2017-12-20T10:14:12.958Z,6.30
2017-12-20T10:16:42.319Z,6.93
2017-12-20T10:19:10.881Z,7.87
2017-12-20T10:21:39.691Z,7.27
2017-12-20T10:24:08.394Z,9.00
2017-12-20T10:26:36.978Z,7.13
2017-12-20T10:29:05.573Z,6.50
2017-12-20T10:31:34.176Z,6.60
2017-12-20T10:34:02.873Z,6.23
2017-12-20T10:36:32.238Z,7.03
2017-12-20T10:39:00.812Z,8.10
2017-12-20T10:41:29.431Z,6.27
2017-12-20T10:43:58.096Z,6.13
2017-12-20T10:46:26.835Z,6.17
2017-12-20T10:48:55.424Z,4.90
2017-12-20T10:51:24.791Z,3.67
2017-12-20T10:53:53.412Z,5.20
2017-12-20T10:56:23.422Z,4.30
2017-12-20T11:01:46.271Z,6.27
2017-12-20T11:04:17.367Z,4.97
2017-12-20T11:06:45.932Z,4.90
2017-12-20T11:09:14.520Z,4.97
2017-12-20T11:11:43.146Z,3.10
2017-12-20T11:14:11.698Z,3.03
2017-12-20T11:16:40.404Z,3.93
2017-12-20T11:19:08.985Z,4.00
2017-12-20T11:21:37.234Z,3.43
2017-12-20T11:24:05.840Z,4.47
2017-12-20T11:26:34.444Z,3.50
2017-12-20T11:29:03.083Z,4.37
2017-12-20T11:31:31.384Z,5.07
2017-12-20T11:33:59.986Z,5.27
2017-12-20T11:36:29.351Z,4.50
2017-12-20T11:38:57.996Z,5.10
2017-12-20T11:41:26.645Z,4.63
2017-12-20T11:43:55.231Z,3.70
2017-12-20T11:46:24.630Z,4.53
2017-12-20T11:48:53.247Z,4.50
2017-12-20T11:51:22.614Z,4.50
2017-12-20T11:53:51.225Z,4.43
2017-12-20T11:56:20.567Z,4.57
2017-12-20T11:58:49.134Z,5.30
2017-12-20T12:01:17.480Z,4.90
2017-12-20T12:03:46.077Z,4.90
2017-12-20T12:06:14.796Z,5.37
2017-12-20T12:08:43.396Z,5.57
2017-12-20T12:11:11.984Z,5.60
2017-12-20T12:13:40.574Z,5.57
2017-12-20T12:16:09.191Z,5.53
2017-12-20T12:18:37.808Z,5.33
2017-12-20T12:21:07.126Z,5.57
2017-12-20T12:23:35.783Z,6.23
2017-12-20T12:26:04.451Z,6.83
2017-12-20T12:28:33.061Z,7.10
2017-12-20T12:31:02.481Z,17.73
2017-12-20T12:33:31.070Z,18.77
2017-12-20T12:35:59.660Z,16.73
2017-12-20T12:38:28.247Z,8.27
2017-12-20T12:40:56.250Z,7.67
2017-12-20T12:43:28.768Z,7.10
2017-12-20T12:45:57.341Z,7.43
2017-12-20T12:48:25.960Z,8.50
2017-12-20T12:50:55.313Z,6.83
2017-12-20T12:53:23.935Z,8.90
2017-12-20T12:55:52.599Z,6.70
2017-12-20T12:58:21.180Z,7.27
2017-12-20T13:00:49.773Z,7.73
2017-12-20T13:03:18.407Z,7.97
2017-12-20T13:05:46.973Z,8.83
2017-12-20T13:08:15.563Z,8.13
2017-12-20T13:10:44.869Z,8.47
2017-12-20T13:13:14.236Z,18.87
2017-12-20T13:15:42.866Z,14.27
2017-12-20T13:18:12.245Z,9.90
2017-12-20T13:20:40.855Z,10.70
2017-12-20T13:23:10.197Z,11.00
2017-12-20T13:25:38.787Z,9.07
2017-12-20T13:28:07.394Z,9.50
2017-12-20T13:30:35.989Z,11.60
2017-12-20T13:33:04.301Z,11.07
2017-12-20T13:35:33.634Z,11.53
2017-12-20T13:38:02.969Z,14.90
2017-12-20T13:40:31.585Z,18.23
2017-12-20T13:43:00.959Z,14.13
2017-12-20T13:45:29.695Z,16.40
2017-12-20T13:47:58.306Z,13.47
2017-12-20T13:50:26.610Z,12.13
2017-12-20T13:52:55.226Z,13.83
2017-12-20T13:55:23.853Z,16.13
2017-12-20T13:57:52.504Z,14.17
2017-12-20T14:00:20.523Z,16.00
2017-12-20T14:02:49.118Z,33.67
2017-12-20T14:05:17.728Z,21.13
2017-12-20T14:07:46.334Z,16.13
2017-12-20T14:10:15.760Z,13.87
2017-12-20T14:12:44.399Z,13.70
2017-12-20T14:15:13.036Z,17.17
2017-12-20T14:17:41.651Z,14.70
2017-12-20T14:20:11.008Z,14.30
2017-12-20T14:22:40.391Z,14.23
2017-12-20T14:25:08.990Z,15.33
2017-12-20T14:27:37.599Z,13.07
2017-12-20T14:30:06.293Z,12.27
2017-12-20T14:32:34.892Z,11.20
2017-12-20T14:35:03.479Z,10.97
2017-12-20T14:37:32.126Z,10.70
2017-12-20T14:40:00.731Z,9.63
2017-12-20T14:42:30.083Z,11.87
2017-12-20T14:44:58.658Z,11.90
2017-12-20T14:47:27.228Z,12.23
2017-12-20T14:49:55.802Z,12.47
2017-12-20T14:52:24.395Z,15.27
2017-12-20T14:54:53.022Z,15.67
2017-12-20T14:57:21.301Z,16.27
2017-12-20T14:59:49.917Z,17.23
2017-12-20T15:02:18.529Z,15.13
2017-12-20T15:04:47.121Z,18.20
2017-12-20T15:07:15.708Z,16.67
2017-12-20T15:09:44.270Z,15.30
2017-12-20T15:12:13.666Z,14.63
2017-12-20T15:14:42.119Z,14.70
2017-12-20T15:17:10.766Z,15.03
2017-12-20T15:19:49.950Z,15.27
2017-12-20T15:22:18.631Z,30.50
2017-12-20T15:24:47.377Z,32.70
2017-12-20T15:27:16.315Z,25.93
2017-12-20T15:29:44.996Z,23.13
2017-12-20T15:32:13.647Z,23.77
2017-12-20T15:34:42.745Z,22.17
2017-12-20T15:37:11.321Z,23.50
2017-12-20T15:39:40.675Z,21.70
2017-12-20T15:42:08.681Z,26.80
2017-12-20T15:44:37.279Z,25.70
2017-12-20T15:47:06.791Z,23.93
2017-12-20T15:49:36.120Z,22.20
2017-12-20T15:52:04.726Z,18.73
2017-12-20T15:54:33.366Z,21.40
2017-12-20T15:57:02.697Z,26.63
2017-12-20T15:59:31.343Z,24.30
2017-12-20T16:01:59.958Z,23.50
2017-12-20T16:04:28.669Z,19.43
2017-12-20T16:06:57.317Z,19.33
2017-12-20T16:09:26.682Z,19.37
2017-12-20T16:11:55.325Z,21.07
2017-12-20T16:14:23.938Z,19.57
2017-12-20T16:16:52.595Z,22.07
2017-12-20T16:19:21.965Z,22.90
2017-12-20T16:21:54.188Z,22.97
2017-12-20T16:24:22.813Z,24.03
2017-12-20T16:26:51.426Z,21.53
2017-12-20T16:29:20.541Z,24.03
2017-12-20T16:31:49.902Z,20.23
2017-12-20T16:34:18.697Z,18.60
2017-12-20T16:36:47.360Z,15.67
2017-12-20T16:39:15.953Z,16.40
2017-12-20T16:41:44.577Z,17.00
2017-12-20T16:44:13.232Z,21.37
2017-12-20T16:46:41.820Z,25.20
2017-12-20T16:49:10.508Z,20.80
2017-12-20T16:51:39.164Z,20.60
2017-12-20T16:54:07.886Z,19.27
2017-12-20T16:56:36.545Z,18.03
2017-12-20T16:59:05.138Z,14.87
2017-12-20T17:01:33.791Z,13.97
2017-12-20T17:04:03.203Z,13.50
2017-12-20T17:06:32.560Z,14.20
2017-12-20T17:09:02.204Z,12.67
2017-12-20T17:11:30.844Z,13.83
2017-12-20T17:13:59.468Z,13.60
2017-12-20T17:16:28.067Z,12.20
2017-12-20T17:18:57.200Z,12.00
2017-12-20T17:21:25.806Z,13.73
2017-12-20T17:23:54.393Z,13.57
2017-12-20T17:26:23.141Z,13.67
2017-12-20T17:28:52.454Z,14.90
2017-12-20T17:31:21.074Z,14.20
2017-12-20T17:33:49.797Z,13.63
2017-12-20T17:36:18.499Z,15.07
2017-12-20T17:38:48.019Z,15.77
2017-12-20T17:41:17.399Z,14.63
2017-12-20T17:43:47.883Z,15.50
2017-12-20T17:46:16.546Z,14.50
2017-12-20T17:48:45.231Z,14.40
2017-12-20T17:51:14.684Z,13.53
2017-12-20T17:53:43.370Z,13.63
2017-12-20T17:56:12.175Z,14.40
2017-12-20T17:58:40.830Z,15.23
2017-12-20T18:01:08.833Z,15.07
2017-12-20T18:03:38.604Z,16.13
2017-12-20T18:06:07.276Z,18.33
2017-12-20T18:08:36.693Z,19.73
2017-12-20T18:11:05.345Z,19.37
2017-12-20T18:13:33.971Z,16.57
2017-12-20T18:16:02.591Z,15.90
2017-12-20T18:18:31.179Z,17.27
2017-12-20T18:20:59.907Z,17.20
2017-12-20T18:23:28.497Z,20.53
2017-12-20T18:25:57.996Z,19.07
2017-12-20T18:28:27.401Z,17.60
2017-12-20T18:30:56.336Z,17.03
2017-12-20T18:33:24.984Z,17.67
2017-12-20T18:35:53.573Z,17.47
2017-12-20T18:38:22.169Z,17.00
2017-12-20T18:40:51.544Z,18.77
2017-12-20T18:43:20.170Z,18.10
2017-12-20T18:45:48.848Z,16.83
2017-12-20T18:48:18.259Z,15.67
2017-12-20T18:50:46.871Z,15.13
2017-12-20T18:53:15.535Z,15.57
2017-12-20T18:55:44.254Z,16.40
2017-12-20T18:58:12.875Z,16.10
2017-12-20T19:00:41.500Z,18.17
2017-12-20T19:03:10.117Z,14.90
2017-12-20T19:05:40.763Z,15.93
2017-12-20T19:08:09.386Z,16.80
2017-12-20T19:10:38.058Z,18.23
2017-12-20T19:13:06.645Z,21.13
2017-12-20T19:15:35.505Z,18.17
2017-12-20T19:18:04.141Z,19.53
2017-12-20T19:20:32.487Z,18.20
2017-12-20T19:23:01.161Z,19.00
2017-12-20T19:25:29.822Z,19.30
2017-12-20T19:27:59.215Z,22.30
2017-12-20T19:30:28.302Z,19.27
2017-12-20T19:32:56.941Z,19.83
2017-12-20T19:35:25.657Z,19.40
2017-12-20T19:37:54.316Z,18.40
2017-12-20T19:40:22.921Z,17.47
2017-12-20T19:42:51.590Z,16.87
2017-12-20T19:45:20.195Z,16.30
2017-12-20T19:47:48.993Z,23.20
2017-12-20T19:50:17.634Z,19.20
2017-12-20T19:52:46.208Z,20.43
2017-12-20T19:55:15.590Z,16.80
2017-12-20T19:57:46.336Z,16.93
2017-12-20T20:00:15.690Z,17.73
2017-12-20T20:02:44.357Z,17.37
2017-12-20T20:05:12.985Z,18.17
2017-12-20T20:07:41.613Z,15.93
2017-12-20T20:10:10.198Z,16.13
2017-12-20T20:12:39.597Z,19.10
2017-12-20T20:15:08.165Z,19.03
2017-12-20T20:17:38.891Z,18.30
2017-12-20T20:20:07.557Z,15.10
2017-12-20T20:22:36.124Z,14.83
2017-12-20T20:25:04.777Z,14.50
2017-12-20T20:27:34.097Z,14.77
2017-12-20T20:30:02.723Z,14.83
2017-12-20T20:32:31.290Z,14.10
2017-12-20T20:34:59.827Z,59.77
2017-12-20T20:37:28.442Z,29.77
2017-12-20T20:39:57.806Z,20.17
2017-12-20T20:42:26.452Z,20.97
2017-12-20T20:44:55.054Z,17.53
2017-12-20T20:47:23.621Z,18.37
2017-12-20T20:49:59.569Z,16.17
2017-12-20T20:52:28.923Z,16.87
2017-12-20T20:54:57.519Z,16.27
2017-12-20T20:57:26.445Z,17.70
2017-12-20T20:59:55.417Z,15.60
2017-12-20T21:02:24.133Z,16.50
2017-12-20T21:04:53.475Z,17.63
2017-12-20T21:07:22.345Z,18.53
2017-12-20T21:09:50.956Z,23.10
2017-12-20T21:12:19.680Z,19.90
2017-12-20T21:14:48.533Z,20.63
2017-12-20T21:17:17.206Z,18.93
2017-12-20T21:19:45.937Z,19.63
2017-12-20T21:22:15.009Z,20.53
2017-12-20T21:24:43.778Z,18.10
2017-12-20T21:27:12.461Z,18.40
2017-12-20T21:29:41.775Z,17.57
2017-12-20T21:32:10.822Z,18.53
2017-12-20T21:34:40.006Z,19.23
2017-12-20T21:37:09.030Z,18.33
2017-12-20T21:39:38.053Z,20.83
2017-12-20T21:42:07.033Z,20.30
2017-12-20T21:44:38.098Z,19.27
2017-12-20T21:47:06.849Z,20.10
2017-12-20T21:49:36.568Z,20.30
2017-12-20T21:52:05.451Z,20.53
2017-12-20T21:54:34.482Z,18.07
2017-12-20T21:57:03.301Z,17.60
2017-12-20T21:59:32.044Z,17.33
2017-12-20T22:02:01.654Z,15.80
2017-12-20T22:04:31.516Z,18.23
2017-12-20T22:07:00.737Z,18.13
2017-12-20T22:09:29.722Z,17.77
2017-12-20T22:11:58.741Z,17.23
2017-12-20T22:14:27.622Z,18.10
2017-12-20T22:16:56.422Z,19.37
2017-12-20T22:19:25.753Z,18.30
2017-12-20T22:21:55.251Z,17.80
2017-12-20T22:24:23.881Z,18.83
2017-12-20T22:26:53.106Z,20.00
2017-12-20T22:29:21.831Z,21.23
2017-12-20T22:31:50.617Z,18.87
2017-12-20T22:34:19.198Z,18.57
2017-12-20T22:36:47.982Z,18.57
2017-12-20T22:39:16.831Z,21.17
2017-12-20T22:41:45.903Z,22.63
2017-12-20T22:44:15.474Z,17.77
2017-12-20T22:46:44.323Z,18.43
2017-12-20T22:49:12.940Z,19.33
2017-12-20T22:51:41.573Z,19.73
2017-12-20T22:54:10.949Z,19.60
2017-12-20T22:56:39.570Z,17.30
2017-12-20T22:59:08.242Z,18.03
2017-12-20T23:01:36.834Z,15.83
2017-12-20T23:04:05.444Z,18.33
2017-12-20T23:06:34.061Z,18.37
2017-12-20T23:09:02.638Z,16.40
2017-12-20T23:11:31.311Z,17.90
2017-12-20T23:14:00.895Z,16.83
2017-12-20T23:16:29.528Z,17.30
2017-12-20T23:18:58.117Z,17.83
2017-12-20T23:21:26.684Z,17.67
2017-12-20T23:23:55.073Z,15.40
2017-12-20T23:26:23.673Z,15.30
2017-12-20T23:28:53.001Z,16.53
2017-12-20T23:31:21.608Z,17.60
2017-12-20T23:33:50.447Z,16.77
2017-12-20T23:36:19.045Z,14.87
2017-12-20T23:38:47.621Z,13.87
2017-12-20T23:41:16.495Z,13.37
2017-12-20T23:43:45.118Z,12.77
2017-12-20T23:46:13.702Z,12.87
2017-12-20T23:48:42.357Z,12.53
2017-12-20T23:51:10.979Z,14.07
2017-12-20T23:53:39.540Z,14.63
2017-12-20T23:56:08.123Z,13.77
2017-12-20T23:58:36.761Z,13.33
